createdAt,value
2018-02-22T04:02:19.299Z,11.37
2018-02-22T04:04:47.608Z,8.33
2018-02-22T04:07:16.019Z,9.53
2018-02-22T04:09:44.417Z,6.00
2018-02-22T04:12:12.731Z,10.10
2018-02-22T04:14:41.065Z,10.10
2018-02-22T04:17:09.379Z,10.97
2018-02-22T04:19:37.730Z,9.30
2018-02-22T04:22:06.039Z,8.47
2018-02-22T04:24:35.131Z,7.70
2018-02-22T04:27:03.450Z,9.43
2018-02-22T04:29:32.545Z,8.67
2018-02-22T04:32:00.861Z,11.00
2018-02-22T04:34:29.187Z,8.80
2018-02-22T04:36:57.495Z,7.20
2018-02-22T04:39:26.589Z,8.03
2018-02-22T04:41:55.656Z,11.33
2018-02-22T04:44:24.776Z,7.87
2018-02-22T04:46:53.842Z,9.03
2018-02-22T04:49:22.148Z,6.47
2018-02-22T04:51:52.267Z,11.53
2018-02-22T04:54:20.596Z,7.30
2018-02-22T04:56:48.924Z,11.50
2018-02-22T04:59:18.092Z,10.13
2018-02-22T05:01:46.432Z,11.30
2018-02-22T05:04:14.758Z,11.30
2018-02-22T05:06:43.084Z,5.97
2018-02-22T05:09:11.391Z,9.67
2018-02-22T05:11:39.723Z,10.67
2018-02-22T05:14:08.061Z,10.23
2018-02-22T05:16:36.394Z,7.00
2018-02-22T05:19:04.705Z,10.70
2018-02-22T05:21:33.045Z,13.07
2018-02-22T05:24:01.359Z,13.00
2018-02-22T05:26:29.695Z,13.80
2018-02-22T05:28:58.016Z,8.67
2018-02-22T05:31:26.344Z,8.07
2018-02-22T05:33:54.668Z,10.00
2018-02-22T05:36:22.999Z,10.87
2018-02-22T05:38:52.248Z,11.30
2018-02-22T05:41:20.589Z,5.23
2018-02-22T05:43:48.899Z,12.30
2018-02-22T05:46:17.211Z,12.83
2018-02-22T05:48:46.317Z,8.70
2018-02-22T05:51:15.632Z,7.10
2018-02-22T05:53:44.190Z,10.63
2018-02-22T05:56:12.704Z,13.23
2018-02-22T05:58:41.088Z,12.57
2018-02-22T06:01:09.417Z,10.40
2018-02-22T06:03:37.797Z,11.13
2018-02-22T06:06:06.285Z,11.37
2018-02-22T06:08:34.712Z,11.20
2018-02-22T06:11:03.437Z,9.57
2018-02-22T06:13:31.820Z,12.70
2018-02-22T06:16:00.275Z,11.23
2018-02-22T06:18:28.820Z,12.13
2018-02-22T06:20:57.180Z,12.23
2018-02-22T06:23:26.283Z,12.37
2018-02-22T06:25:55.357Z,11.13
2018-02-22T06:28:24.470Z,13.07
2018-02-22T06:30:53.552Z,12.87
2018-02-22T06:33:21.883Z,11.50
2018-02-22T06:35:50.205Z,12.33
2018-02-22T06:38:18.544Z,12.57
2018-02-22T06:40:46.861Z,11.37
2018-02-22T06:43:15.193Z,11.80
2018-02-22T06:45:43.503Z,15.27
2018-02-22T06:48:11.841Z,15.10
2018-02-22T06:50:40.166Z,15.80
2018-02-22T06:53:08.539Z,17.00
2018-02-22T06:55:36.851Z,16.47
2018-02-22T06:58:06.123Z,9.13
2018-02-22T07:00:34.445Z,6.63
2018-02-22T07:03:02.777Z,6.07
2018-02-22T07:05:31.076Z,9.47
2018-02-22T07:08:00.167Z,9.27
2018-02-22T07:10:28.482Z,18.47
2018-02-22T07:12:56.818Z,23.90
2018-02-22T07:15:25.132Z,14.27
2018-02-22T07:17:53.472Z,10.00
2018-02-22T07:20:24.504Z,8.67
2018-02-22T07:22:52.840Z,6.67
2018-02-22T07:25:21.144Z,8.00
2018-02-22T07:27:49.737Z,9.30
2018-02-22T07:30:18.049Z,8.10
2018-02-22T07:32:47.151Z,13.70
2018-02-22T07:35:15.461Z,9.40
2018-02-22T07:37:43.789Z,9.77
2018-02-22T07:40:12.858Z,8.73
2018-02-22T07:42:41.184Z,7.50
2018-02-22T07:45:09.494Z,9.20
2018-02-22T07:47:37.824Z,11.10
2018-02-22T07:50:07.812Z,8.50
2018-02-22T07:52:36.136Z,8.90
2018-02-22T07:55:04.445Z,6.93
2018-02-22T07:57:32.780Z,7.97
2018-02-22T08:00:01.093Z,7.10
2018-02-22T08:02:29.426Z,7.23
2018-02-22T08:04:58.497Z,7.17
2018-02-22T08:07:26.837Z,9.50
2018-02-22T08:09:55.149Z,8.43
2018-02-22T08:12:23.480Z,8.37
2018-02-22T08:14:51.784Z,7.40
2018-02-22T08:17:20.096Z,6.30
2018-02-22T08:19:48.424Z,6.37
2018-02-22T08:22:16.727Z,6.43
2018-02-22T08:24:45.049Z,5.30
2018-02-22T08:27:14.113Z,7.20
2018-02-22T08:29:42.436Z,4.50
2018-02-22T08:32:10.754Z,6.67
2018-02-22T08:34:39.080Z,6.93
2018-02-22T08:37:07.390Z,6.03
2018-02-22T08:39:35.724Z,7.23
2018-02-22T08:42:04.789Z,5.83
2018-02-22T08:44:33.118Z,6.00
2018-02-22T08:47:01.425Z,6.57
2018-02-22T08:49:29.752Z,7.07
2018-02-22T08:51:58.852Z,6.83
2018-02-22T08:54:27.185Z,6.43
2018-02-22T08:56:55.480Z,6.00
2018-02-22T08:59:23.809Z,4.43
2018-02-22T09:01:52.108Z,3.57
2018-02-22T09:04:20.429Z,6.30
2018-02-22T09:06:49.496Z,3.73
2018-02-22T09:09:17.818Z,4.33
2018-02-22T09:11:46.881Z,4.20
2018-02-22T09:14:16.069Z,4.60
2018-02-22T09:16:44.360Z,3.87
2018-02-22T09:19:12.677Z,4.23
2018-02-22T09:21:40.973Z,4.67
2018-02-22T09:24:09.284Z,5.23
2018-02-22T09:26:37.598Z,4.23
2018-02-22T09:29:05.925Z,4.30
2018-02-22T09:31:34.216Z,5.07
2018-02-22T09:34:02.528Z,6.17
2018-02-22T09:39:26.689Z,5.63
2018-02-22T09:41:54.984Z,4.40
2018-02-22T09:44:23.306Z,4.90
2018-02-22T09:46:51.599Z,5.07
2018-02-22T09:49:19.915Z,4.07
2018-02-22T09:51:48.211Z,3.70
2018-02-22T09:54:16.522Z,4.50
2018-02-22T09:56:44.825Z,4.87
2018-02-22T09:59:13.908Z,3.83
2018-02-22T10:01:42.209Z,4.80
2018-02-22T10:04:11.314Z,4.37
2018-02-22T10:06:39.600Z,4.53
2018-02-22T10:09:08.697Z,3.10
2018-02-22T10:11:37.765Z,4.53
2018-02-22T10:14:06.075Z,2.90
2018-02-22T10:16:35.136Z,4.97
2018-02-22T10:19:04.271Z,4.13
2018-02-22T10:21:33.329Z,3.67
2018-02-22T10:24:02.413Z,4.93
2018-02-22T10:26:31.468Z,2.90
2018-02-22T10:28:59.796Z,4.80
2018-02-22T10:31:28.088Z,2.70
2018-02-22T10:33:56.414Z,2.60
2018-02-22T10:36:24.707Z,4.97
2018-02-22T10:38:53.024Z,4.90
2018-02-22T10:41:21.320Z,3.67
2018-02-22T10:43:50.404Z,4.40
2018-02-22T10:46:19.472Z,4.40
2018-02-22T10:48:48.564Z,3.70
2018-02-22T10:51:16.860Z,4.50
2018-02-22T10:53:45.188Z,4.47
2018-02-22T10:56:13.506Z,4.10
2018-02-22T10:58:41.813Z,4.97
2018-02-22T11:01:16.668Z,3.60
2018-02-22T11:03:44.956Z,5.13
2018-02-22T11:06:13.270Z,4.60
2018-02-22T11:08:41.569Z,4.47
2018-02-22T11:11:10.656Z,4.53
2018-02-22T11:13:38.956Z,5.53
2018-02-22T11:16:07.294Z,6.20
2018-02-22T11:18:35.596Z,4.67
2018-02-22T11:21:04.677Z,4.17
2018-02-22T11:23:32.969Z,3.53
2018-02-22T11:26:02.062Z,3.50
2018-02-22T11:28:31.121Z,5.50
2018-02-22T11:30:59.443Z,3.80
2018-02-22T11:33:28.517Z,4.50
2018-02-22T11:35:56.866Z,4.23
2018-02-22T11:38:25.140Z,3.67
2018-02-22T11:40:53.480Z,2.50
2018-02-22T11:43:21.779Z,3.13
2018-02-22T11:45:50.096Z,4.60
2018-02-22T11:48:18.412Z,2.73
2018-02-22T11:50:47.473Z,4.53
2018-02-22T11:53:15.785Z,4.67
2018-02-22T11:55:44.084Z,3.97
2018-02-22T11:58:12.427Z,3.97
2018-02-22T12:00:40.717Z,4.60
2018-02-22T12:03:09.792Z,5.30
2018-02-22T12:05:38.156Z,3.97
2018-02-22T12:08:06.464Z,4.30
2018-02-22T12:10:35.532Z,4.00
2018-02-22T12:13:03.847Z,5.13
2018-02-22T12:15:32.152Z,5.77
2018-02-22T12:18:00.476Z,5.87
2018-02-22T12:20:28.771Z,4.23
2018-02-22T12:22:57.091Z,4.43
2018-02-22T12:25:25.392Z,7.20
2018-02-22T12:27:53.716Z,6.30
2018-02-22T12:30:22.016Z,4.53
2018-02-22T12:32:50.312Z,4.37
2018-02-22T12:35:18.728Z,6.27
2018-02-22T12:37:47.066Z,4.70
2018-02-22T12:40:15.389Z,6.40
2018-02-22T12:42:44.460Z,4.93
2018-02-22T12:45:12.776Z,4.33
2018-02-22T12:47:41.072Z,5.20
2018-02-22T12:50:09.389Z,5.73
2018-02-22T12:52:37.696Z,6.70
2018-02-22T12:55:06.024Z,6.20
2018-02-22T12:57:34.316Z,5.40
2018-02-22T13:00:02.661Z,5.27
2018-02-22T13:02:31.736Z,6.40
2018-02-22T13:05:00.046Z,6.90
2018-02-22T13:07:28.363Z,4.87
2018-02-22T13:09:57.425Z,4.23
2018-02-22T13:12:25.741Z,4.50
2018-02-22T13:14:54.809Z,3.57
2018-02-22T13:17:23.124Z,5.27
2018-02-22T13:19:51.427Z,5.73
2018-02-22T13:22:19.745Z,4.80
2018-02-22T13:24:48.054Z,4.80
2018-02-22T13:27:17.136Z,3.67
2018-02-22T13:29:46.202Z,5.27
2018-02-22T13:32:14.525Z,5.00
2018-02-22T13:34:43.581Z,5.20
2018-02-22T13:37:23.691Z,3.67
2018-02-22T13:39:51.996Z,6.70
2018-02-22T13:42:20.296Z,5.70
2018-02-22T13:45:00.428Z,5.70
2018-02-22T13:47:28.756Z,3.47
2018-02-22T13:50:09.669Z,5.67
2018-02-22T13:52:38.004Z,4.00
2018-02-22T13:55:07.074Z,4.10
2018-02-22T13:57:36.370Z,4.30
2018-02-22T14:00:04.690Z,3.90
2018-02-22T14:02:32.992Z,5.40
2018-02-22T14:05:01.313Z,5.53
2018-02-22T14:07:29.603Z,2.97
2018-02-22T14:09:58.692Z,4.57
2018-02-22T14:12:27.721Z,6.40
2018-02-22T14:14:56.045Z,5.60
2018-02-22T14:17:24.348Z,6.43
2018-02-22T14:19:53.448Z,4.60
2018-02-22T14:22:22.612Z,5.60
2018-02-22T14:24:50.945Z,4.20
2018-02-22T14:27:19.240Z,4.27
2018-02-22T14:29:47.566Z,5.70
2018-02-22T14:32:15.868Z,7.20
2018-02-22T14:34:44.948Z,5.83
2018-02-22T14:37:14.024Z,6.80
2018-02-22T14:39:42.352Z,5.37
2018-02-22T14:42:10.660Z,7.00
2018-02-22T14:44:38.984Z,5.63
2018-02-22T14:47:08.055Z,5.47
2018-02-22T14:49:36.380Z,8.03
2018-02-22T14:52:04.680Z,6.57
2018-02-22T14:54:33.012Z,7.97
2018-02-22T14:57:02.084Z,8.27
2018-02-22T14:59:30.457Z,6.10
2018-02-22T15:01:58.766Z,6.77
2018-02-22T15:04:27.836Z,6.50
2018-02-22T15:06:56.161Z,6.17
2018-02-22T15:09:24.470Z,8.97
2018-02-22T15:11:52.800Z,6.90
2018-02-22T15:14:21.105Z,4.20
2018-02-22T15:16:49.419Z,6.80
2018-02-22T15:19:17.720Z,5.00
2018-02-22T15:21:46.808Z,7.40
2018-02-22T15:24:15.882Z,7.23
2018-02-22T15:26:44.214Z,7.23
2018-02-22T15:29:12.511Z,6.40
2018-02-22T15:31:40.837Z,6.87
2018-02-22T15:34:09.905Z,5.00
2018-02-22T15:36:38.245Z,5.80
2018-02-22T15:39:06.548Z,8.00
2018-02-22T15:41:34.877Z,6.40
2018-02-22T15:44:03.947Z,5.80
2018-02-22T15:46:32.264Z,6.50
2018-02-22T15:49:00.570Z,5.73
2018-02-22T15:51:28.896Z,5.40
2018-02-22T15:53:57.967Z,6.60
2018-02-22T15:56:26.325Z,5.80
2018-02-22T15:58:54.622Z,6.80
2018-02-22T16:01:22.923Z,7.20
2018-02-22T16:03:52.017Z,5.40
2018-02-22T16:06:21.101Z,5.57
2018-02-22T16:08:49.436Z,5.57
2018-02-22T16:11:17.763Z,6.90
2018-02-22T16:13:46.072Z,4.97
2018-02-22T16:16:14.396Z,4.93
2018-02-22T16:18:42.700Z,6.23
2018-02-22T16:21:11.801Z,5.10
2018-02-22T16:23:40.874Z,8.10
2018-02-22T16:26:09.204Z,6.37
2018-02-22T16:28:37.517Z,5.93
2018-02-22T16:31:06.611Z,5.10
2018-02-22T16:33:35.688Z,7.03
2018-02-22T16:36:04.012Z,4.80
2018-02-22T16:38:32.317Z,5.20
2018-02-22T16:41:00.641Z,5.63
2018-02-22T16:43:28.950Z,8.77
2018-02-22T16:45:58.046Z,7.40
2018-02-22T16:48:27.113Z,6.77
2018-02-22T16:50:55.441Z,6.60
2018-02-22T16:53:23.736Z,5.43
2018-02-22T16:55:52.085Z,5.63
2018-02-22T16:58:21.149Z,8.13
2018-02-22T17:00:49.459Z,5.90
2018-02-22T17:03:17.805Z,9.10
2018-02-22T17:05:46.111Z,6.93
2018-02-22T17:08:15.198Z,5.40
2018-02-22T17:10:44.280Z,6.93
2018-02-22T17:13:12.620Z,6.13
2018-02-22T17:15:40.925Z,3.60
2018-02-22T17:18:09.243Z,7.00
2018-02-22T17:20:37.558Z,5.40
2018-02-22T17:23:05.879Z,5.10
2018-02-22T17:25:33.680Z,5.63
2018-02-22T17:28:07.589Z,5.80
2018-02-22T17:30:41.484Z,7.50
2018-02-22T17:33:09.808Z,6.83
2018-02-22T17:35:50.823Z,5.50
2018-02-22T17:38:20.513Z,4.80
2018-02-22T17:40:54.547Z,6.07
2018-02-22T17:43:22.876Z,6.57
2018-02-22T17:45:51.176Z,6.60
2018-02-22T17:48:19.512Z,6.23
2018-02-22T17:50:47.816Z,5.80
2018-02-22T17:53:16.148Z,7.80
2018-02-22T17:55:44.452Z,6.20
2018-02-22T17:58:12.780Z,7.13
2018-02-22T18:00:41.081Z,5.17
2018-02-22T18:03:09.408Z,8.60
2018-02-22T18:05:38.481Z,5.10
2018-02-22T18:08:06.809Z,4.80
2018-02-22T18:10:35.120Z,7.17
2018-02-22T18:13:03.436Z,5.57
2018-02-22T18:15:31.743Z,8.50
2018-02-22T18:18:00.911Z,6.53
2018-02-22T18:20:29.212Z,6.10
2018-02-22T18:22:58.309Z,7.20
2018-02-22T18:25:27.381Z,6.60
2018-02-22T18:27:55.732Z,7.87
2018-02-22T18:30:24.051Z,8.13
2018-02-22T18:32:52.364Z,8.60
2018-02-22T18:35:20.692Z,4.60
2018-02-22T18:37:54.656Z,6.40
2018-02-22T18:40:28.697Z,5.00
2018-02-22T18:42:57.001Z,5.70
2018-02-22T18:45:25.347Z,4.93
2018-02-22T18:47:53.667Z,5.97
2018-02-22T18:50:22.768Z,6.67
2018-02-22T18:52:51.851Z,7.03
2018-02-22T18:55:20.191Z,7.40
2018-02-22T18:57:48.498Z,4.00
2018-02-22T19:00:16.820Z,5.63
2018-02-22T19:02:45.121Z,5.40
2018-02-22T19:05:13.445Z,7.40
2018-02-22T19:07:41.767Z,8.13
2018-02-22T19:10:10.091Z,3.20
2018-02-22T19:12:38.396Z,3.60
2018-02-22T19:15:07.484Z,8.80
2018-02-22T19:17:36.560Z,7.43
2018-02-22T19:20:04.894Z,6.30
2018-02-22T19:22:33.216Z,6.60
2018-02-22T19:25:01.521Z,5.13
2018-02-22T19:27:30.626Z,6.77
2018-02-22T19:29:58.933Z,5.30
2018-02-22T19:32:27.247Z,4.00
2018-02-22T19:34:55.552Z,6.17
2018-02-22T19:37:23.883Z,5.60
2018-02-22T19:39:52.181Z,5.53
2018-02-22T19:42:21.282Z,5.00
2018-02-22T19:44:50.173Z,3.60
2018-02-22T19:50:20.200Z,4.80
2018-02-22T19:52:48.528Z,4.73
2018-02-22T19:55:16.843Z,7.00
2018-02-22T19:57:45.168Z,5.57
2018-02-22T20:00:13.474Z,5.60
2018-02-22T20:02:41.809Z,5.17
2018-02-22T20:05:10.883Z,5.30
2018-02-22T20:07:39.209Z,4.70
2018-02-22T20:10:07.516Z,3.90
2018-02-22T20:12:35.864Z,4.63
2018-02-22T20:15:04.185Z,3.70
2018-02-22T20:17:32.487Z,4.40
2018-02-22T20:20:01.578Z,5.37
2018-02-22T20:22:29.884Z,5.80
2018-02-22T20:24:58.212Z,3.40
2018-02-22T20:27:26.538Z,5.77
2018-02-22T20:29:54.883Z,6.43
2018-02-22T20:32:29.140Z,5.57
2018-02-22T20:34:57.483Z,6.33
2018-02-22T20:37:25.801Z,6.10
2018-02-22T20:39:54.135Z,3.67
2018-02-22T20:42:22.445Z,3.23
2018-02-22T20:44:50.780Z,5.93
2018-02-22T20:47:19.089Z,4.77
2018-02-22T20:49:48.176Z,6.57
2018-02-22T20:52:20.909Z,5.20
2018-02-22T20:54:51.866Z,6.53
2018-02-22T20:57:20.207Z,7.03
2018-02-22T20:59:48.541Z,4.17
2018-02-22T21:02:16.853Z,5.40
2018-02-22T21:04:45.188Z,8.80
2018-02-22T21:07:13.498Z,7.73
2018-02-22T21:09:41.841Z,8.43
2018-02-22T21:12:10.144Z,7.00
2018-02-22T21:14:39.250Z,6.33
2018-02-22T21:17:08.323Z,4.77
2018-02-22T21:19:36.667Z,6.47
2018-02-22T21:22:04.979Z,5.50
2018-02-22T21:24:33.309Z,3.97
2018-02-22T21:27:01.616Z,7.17
2018-02-22T21:29:29.961Z,6.93
2018-02-22T21:31:59.283Z,5.83
2018-02-22T21:34:27.619Z,6.03
2018-02-22T21:36:55.940Z,4.83
2018-02-22T21:39:24.244Z,6.40
2018-02-22T21:41:52.569Z,5.87
2018-02-22T21:44:20.873Z,3.50
2018-02-22T21:46:49.197Z,5.73
2018-02-22T21:49:17.508Z,5.97
2018-02-22T21:51:45.845Z,3.73
2018-02-22T21:54:14.912Z,6.27
2018-02-22T21:56:43.249Z,4.37
2018-02-22T21:59:11.561Z,6.90
2018-02-22T22:01:39.889Z,4.90
2018-02-22T22:04:08.215Z,5.40
2018-02-22T22:06:36.536Z,5.37
2018-02-22T22:09:05.610Z,6.13
2018-02-22T22:11:34.724Z,5.07
2018-02-22T22:14:03.796Z,5.37
2018-02-22T22:16:32.117Z,4.83
2018-02-22T22:19:00.444Z,5.30
2018-02-22T22:21:28.764Z,5.60
2018-02-22T22:23:57.085Z,4.60
2018-02-22T22:26:25.393Z,5.70
2018-02-22T22:28:53.725Z,7.00
2018-02-22T22:31:22.038Z,4.87
2018-02-22T22:33:50.368Z,7.93
2018-02-22T22:36:18.676Z,5.80
2018-02-22T22:38:47.018Z,7.83
2018-02-22T22:41:15.352Z,5.97
2018-02-22T22:43:43.712Z,5.43
2018-02-22T22:46:12.792Z,6.00
2018-02-22T22:48:41.121Z,4.10
2018-02-22T22:51:10.190Z,6.20
2018-02-22T22:53:38.520Z,7.70
2018-02-22T22:56:06.839Z,5.60
2018-02-22T22:58:35.154Z,5.63
2018-02-22T23:01:04.260Z,5.37
2018-02-22T23:03:32.581Z,6.27
2018-02-22T23:06:01.681Z,6.80
2018-02-22T23:08:29.984Z,4.63
2018-02-22T23:10:58.312Z,4.40
2018-02-22T23:13:26.625Z,5.77
2018-02-22T23:15:54.963Z,4.57
2018-02-22T23:18:23.279Z,4.70
2018-02-22T23:20:51.605Z,4.53
2018-02-22T23:23:19.913Z,5.30
2018-02-22T23:25:48.238Z,6.70
2018-02-22T23:28:17.313Z,5.47
2018-02-22T23:30:45.645Z,5.33
2018-02-22T23:33:13.953Z,5.87
2018-02-22T23:35:42.291Z,7.47
2018-02-22T23:38:10.606Z,6.67
2018-02-22T23:40:49.432Z,4.50
2018-02-22T23:43:17.744Z,4.93
2018-02-22T23:45:46.826Z,5.17
2018-02-22T23:48:15.155Z,4.33
